sensor_id;sensor_type;location;lat;lon;timestamp;P1;durP1;ratioP1;P2;durP2;ratioP2
28459;SDS011;32528;45.712;9.192;2022-08-21T10:46:15;1.33;;;0.60;;
28459;SDS011;32528;45.712;9.192;2022-08-21T10:48:54;0.85;;;0.40;;
28459;SDS011;32528;45.712;9.192;2022-08-21T10:51:15;0.98;;;0.40;;
28459;SDS011;32528;45.712;9.192;2022-08-21T10:53:58;0.43;;;0.20;;
28459;SDS011;32528;45.712;9.192;2022-08-21T10:58:22;0.30;;;0.30;;
28459;SDS011;32528;45.712;9.192;2022-08-21T11:00:38;2.05;;;0.50;;
28459;SDS011;32528;45.712;9.192;2022-08-21T11:02:43;0.98;;;0.32;;
28459;SDS011;32528;45.712;9.192;2022-08-21T11:04:53;1.20;;;0.50;;
28459;SDS011;32528;45.712;9.192;2022-08-21T11:07:21;0.73;;;0.30;;
28459;SDS011;32528;45.712;9.192;2022-08-21T11:09:32;0.63;;;0.30;;
28459;SDS011;32528;45.712;9.192;2022-08-21T11:11:38;1.40;;;0.50;;
28459;SDS011;32528;45.712;9.192;2022-08-21T11:18:55;1.17;;;0.47;;
28459;SDS011;32528;45.712;9.192;2022-08-21T11:21:15;1.33;;;0.40;;
28459;SDS011;32528;45.712;9.192;2022-08-21T11:23:28;1.55;;;0.60;;
28459;SDS011;32528;45.712;9.192;2022-08-21T11:25:37;1.23;;;0.57;;
28459;SDS011;32528;45.712;9.192;2022-08-21T11:29:48;0.85;;;0.47;;
28459;SDS011;32528;45.712;9.192;2022-08-21T11:32:07;1.70;;;0.55;;
28459;SDS011;32528;45.712;9.192;2022-08-21T11:41:29;5.10;;;0.38;;
28459;SDS011;32528;45.712;9.192;2022-08-21T11:43:43;1.98;;;0.55;;
28459;SDS011;32528;45.712;9.192;2022-08-21T11:45:51;0.65;;;0.30;;
28459;SDS011;32528;45.712;9.192;2022-08-21T11:52:23;0.40;;;0.28;;
28459;SDS011;32528;45.712;9.192;2022-08-21T11:56:46;0.57;;;0.40;;
28459;SDS011;32528;45.712;9.192;2022-08-21T11:58:55;9.23;;;0.63;;
28459;SDS011;32528;45.712;9.192;2022-08-21T12:01:00;1.00;;;0.57;;
28459;SDS011;32528;45.712;9.192;2022-08-21T12:03:09;1.13;;;0.55;;
28459;SDS011;32528;45.712;9.192;2022-08-21T12:05:29;3.03;;;1.45;;
28459;SDS011;32528;45.712;9.192;2022-08-21T12:09:51;0.80;;;0.40;;
28459;SDS011;32528;45.712;9.192;2022-08-21T12:16:08;2.22;;;0.32;;
28459;SDS011;32528;45.712;9.192;2022-08-21T12:18:27;2.40;;;0.65;;
28459;SDS011;32528;45.712;9.192;2022-08-21T12:23:28;0.55;;;0.25;;
28459;SDS011;32528;45.712;9.192;2022-08-21T12:25:39;0.88;;;0.60;;
28459;SDS011;32528;45.712;9.192;2022-08-21T12:27:53;1.27;;;0.55;;
28459;SDS011;32528;45.712;9.192;2022-08-21T12:30:17;0.60;;;0.30;;
28459;SDS011;32528;45.712;9.192;2022-08-21T12:32:27;1.65;;;0.45;;
28459;SDS011;32528;45.712;9.192;2022-08-21T12:34:37;0.65;;;0.45;;
28459;SDS011;32528;45.712;9.192;2022-08-21T12:36:46;1.05;;;0.45;;
28459;SDS011;32528;45.712;9.192;2022-08-21T12:38:57;0.75;;;0.30;;
28459;SDS011;32528;45.712;9.192;2022-08-21T12:41:06;1.52;;;0.50;;
28459;SDS011;32528;45.712;9.192;2022-08-21T12:43:20;0.43;;;0.35;;
28459;SDS011;32528;45.712;9.192;2022-08-21T12:45:43;0.35;;;0.30;;
28459;SDS011;32528;45.712;9.192;2022-08-21T12:47:48;1.60;;;0.40;;
28459;SDS011;32528;45.712;9.192;2022-08-21T12:50:01;0.60;;;0.30;;
28459;SDS011;32528;45.712;9.192;2022-08-21T12:54:45;1.35;;;0.40;;
28459;SDS011;32528;45.712;9.192;2022-08-21T12:56:54;2.95;;;0.50;;
28459;SDS011;32528;45.712;9.192;2022-08-21T12:59:05;1.00;;;0.50;;
28459;SDS011;32528;45.712;9.192;2022-08-21T13:01:19;4.03;;;0.45;;
28459;SDS011;32528;45.712;9.192;2022-08-21T13:07:34;0.95;;;0.47;;
28459;SDS011;32528;45.712;9.192;2022-08-21T13:09:39;0.75;;;0.28;;
28459;SDS011;32528;45.712;9.192;2022-08-21T13:11:53;1.45;;;0.38;;
28459;SDS011;32528;45.712;9.192;2022-08-21T13:13:55;1.02;;;0.32;;
28459;SDS011;32528;45.712;9.192;2022-08-21T13:16:03;1.20;;;0.30;;
28459;SDS011;32528;45.712;9.192;2022-08-21T13:18:05;0.63;;;0.45;;
28459;SDS011;32528;45.712;9.192;2022-08-21T13:20:08;1.15;;;0.40;;
28459;SDS011;32528;45.712;9.192;2022-08-21T13:22:18;1.42;;;0.60;;
28459;SDS011;32528;45.712;9.192;2022-08-21T13:24:21;2.10;;;0.50;;
28459;SDS011;32528;45.712;9.192;2022-08-21T13:26:24;0.68;;;0.40;;
28459;SDS011;32528;45.712;9.192;2022-08-21T13:28:31;0.43;;;0.38;;
28459;SDS011;32528;45.712;9.192;2022-08-21T13:30:34;1.33;;;0.63;;
28459;SDS011;32528;45.712;9.192;2022-08-21T13:32:44;1.10;;;0.50;;
28459;SDS011;32528;45.712;9.192;2022-08-21T13:34:48;1.13;;;0.43;;
28459;SDS011;32528;45.712;9.192;2022-08-21T13:36:51;4.80;;;0.60;;
28459;SDS011;32528;45.712;9.192;2022-08-21T13:38:55;1.00;;;0.35;;
28459;SDS011;32528;45.712;9.192;2022-08-21T13:40:58;2.00;;;0.50;;
28459;SDS011;32528;45.712;9.192;2022-08-21T13:43:02;0.60;;;0.40;;
28459;SDS011;32528;45.712;9.192;2022-08-21T13:45:03;1.38;;;0.40;;
28459;SDS011;32528;45.712;9.192;2022-08-21T13:47:12;1.88;;;0.70;;
28459;SDS011;32528;45.712;9.192;2022-08-21T13:49:15;0.47;;;0.30;;
28459;SDS011;32528;45.712;9.192;2022-08-21T13:51:19;4.25;;;0.45;;
28459;SDS011;32528;45.712;9.192;2022-08-21T13:53:22;1.42;;;0.40;;
28459;SDS011;32528;45.712;9.192;2022-08-21T13:55:38;3.10;;;0.60;;
28459;SDS011;32528;45.712;9.192;2022-08-21T13:57:41;1.00;;;0.40;;
28459;SDS011;32528;45.712;9.192;2022-08-21T13:59:42;2.10;;;0.70;;
28459;SDS011;32528;45.712;9.192;2022-08-21T14:01:51;1.30;;;0.52;;
28459;SDS011;32528;45.712;9.192;2022-08-21T14:04:02;1.45;;;0.30;;
28459;SDS011;32528;45.712;9.192;2022-08-21T14:06:26;0.82;;;0.43;;
28459;SDS011;32528;45.712;9.192;2022-08-21T14:08:31;4.82;;;0.55;;
28459;SDS011;32528;45.712;9.192;2022-08-21T14:10:36;0.98;;;0.50;;
28459;SDS011;32528;45.712;9.192;2022-08-21T14:14:48;2.40;;;1.52;;
28459;SDS011;32528;45.712;9.192;2022-08-21T14:17:03;1.13;;;0.47;;
28459;SDS011;32528;45.712;9.192;2022-08-21T14:19:20;0.90;;;0.40;;
28459;SDS011;32528;45.712;9.192;2022-08-21T14:21:24;1.95;;;0.55;;
28459;SDS011;32528;45.712;9.192;2022-08-21T14:23:32;1.33;;;0.47;;
28459;SDS011;32528;45.712;9.192;2022-08-21T14:25:43;1.23;;;0.47;;
28459;SDS011;32528;45.712;9.192;2022-08-21T14:27:51;0.32;;;0.30;;
28459;SDS011;32528;45.712;9.192;2022-08-21T14:29:57;8.73;;;1.92;;
28459;SDS011;32528;45.712;9.192;2022-08-21T14:32:09;4.40;;;0.60;;
28459;SDS011;32528;45.712;9.192;2022-08-21T14:34:11;5.75;;;0.98;;
28459;SDS011;32528;45.712;9.192;2022-08-21T14:36:13;1.33;;;0.50;;
28459;SDS011;32528;45.712;9.192;2022-08-21T14:38:15;1.70;;;0.80;;
28459;SDS011;32528;45.712;9.192;2022-08-21T14:40:18;1.58;;;0.55;;
28459;SDS011;32528;45.712;9.192;2022-08-21T14:42:20;2.20;;;0.82;;
28459;SDS011;32528;45.712;9.192;2022-08-21T14:44:21;0.60;;;0.30;;
28459;SDS011;32528;45.712;9.192;2022-08-21T14:46:26;1.38;;;0.50;;
28459;SDS011;32528;45.712;9.192;2022-08-21T14:48:28;1.98;;;0.80;;
28459;SDS011;32528;45.712;9.192;2022-08-21T14:50:29;1.75;;;0.60;;
28459;SDS011;32528;45.712;9.192;2022-08-21T14:52:30;3.30;;;0.60;;
28459;SDS011;32528;45.712;9.192;2022-08-21T14:54:31;1.40;;;0.55;;
28459;SDS011;32528;45.712;9.192;2022-08-21T14:56:33;0.73;;;0.40;;
28459;SDS011;32528;45.712;9.192;2022-08-21T14:58:35;0.82;;;0.43;;
28459;SDS011;32528;45.712;9.192;2022-08-21T15:00:38;1.45;;;0.43;;
28459;SDS011;32528;45.712;9.192;2022-08-21T15:02:39;3.88;;;0.30;;
28459;SDS011;32528;45.712;9.192;2022-08-21T15:04:40;1.20;;;0.40;;
28459;SDS011;32528;45.712;9.192;2022-08-21T15:06:42;1.25;;;0.35;;
28459;SDS011;32528;45.712;9.192;2022-08-21T15:08:43;2.22;;;0.73;;
28459;SDS011;32528;45.712;9.192;2022-08-21T15:10:44;0.95;;;0.32;;
28459;SDS011;32528;45.712;9.192;2022-08-21T15:12:45;1.45;;;0.50;;
28459;SDS011;32528;45.712;9.192;2022-08-21T15:14:46;0.90;;;0.40;;
28459;SDS011;32528;45.712;9.192;2022-08-21T15:16:47;2.25;;;0.40;;
28459;SDS011;32528;45.712;9.192;2022-08-21T15:24:51;1.10;;;0.40;;
28459;SDS011;32528;45.712;9.192;2022-08-21T15:26:53;1.02;;;0.38;;
28459;SDS011;32528;45.712;9.192;2022-08-21T15:28:55;0.70;;;0.43;;
28459;SDS011;32528;45.712;9.192;2022-08-21T15:30:55;1.20;;;0.52;;
28459;SDS011;32528;45.712;9.192;2022-08-21T15:32:56;2.47;;;0.50;;
28459;SDS011;32528;45.712;9.192;2022-08-21T15:34:57;0.28;;;0.22;;
28459;SDS011;32528;45.712;9.192;2022-08-21T15:36:58;0.85;;;0.40;;
28459;SDS011;32528;45.712;9.192;2022-08-21T15:38:59;1.52;;;0.30;;
28459;SDS011;32528;45.712;9.192;2022-08-21T15:41:01;15.10;;;0.50;;
28459;SDS011;32528;45.712;9.192;2022-08-21T15:43:03;0.90;;;0.50;;
28459;SDS011;32528;45.712;9.192;2022-08-21T15:45:05;1.00;;;0.47;;
28459;SDS011;32528;45.712;9.192;2022-08-21T15:47:18;1.42;;;0.47;;
28459;SDS011;32528;45.712;9.192;2022-08-21T15:49:21;1.67;;;0.30;;
28459;SDS011;32528;45.712;9.192;2022-08-21T15:51:23;2.55;;;0.30;;
28459;SDS011;32528;45.712;9.192;2022-08-21T15:53:23;1.33;;;0.43;;
28459;SDS011;32528;45.712;9.192;2022-08-21T15:55:24;2.88;;;0.50;;
28459;SDS011;32528;45.712;9.192;2022-08-21T15:57:25;0.98;;;0.38;;
28459;SDS011;32528;45.712;9.192;2022-08-21T16:01:27;4.45;;;0.80;;
28459;SDS011;32528;45.712;9.192;2022-08-21T16:13:35;0.63;;;0.30;;
28459;SDS011;32528;45.712;9.192;2022-08-21T16:15:39;1.13;;;0.40;;
28459;SDS011;32528;45.712;9.192;2022-08-21T16:17:40;0.65;;;0.30;;
28459;SDS011;32528;45.712;9.192;2022-08-21T16:19:47;1.45;;;0.40;;
28459;SDS011;32528;45.712;9.192;2022-08-21T16:21:48;7.35;;;0.47;;
28459;SDS011;32528;45.712;9.192;2022-08-21T16:23:49;0.47;;;0.15;;
28459;SDS011;32528;45.712;9.192;2022-08-21T16:25:50;1.48;;;0.52;;
28459;SDS011;32528;45.712;9.192;2022-08-21T16:27:52;1.48;;;0.60;;
28459;SDS011;32528;45.712;9.192;2022-08-21T16:29:57;0.35;;;0.13;;
28459;SDS011;32528;45.712;9.192;2022-08-21T16:31:58;1.20;;;0.40;;
28459;SDS011;32528;45.712;9.192;2022-08-21T16:34:00;1.00;;;0.30;;
28459;SDS011;32528;45.712;9.192;2022-08-21T16:36:02;1.58;;;0.38;;
28459;SDS011;32528;45.712;9.192;2022-08-21T16:38:03;0.20;;;0.20;;
28459;SDS011;32528;45.712;9.192;2022-08-21T16:40:04;4.22;;;0.43;;
28459;SDS011;32528;45.712;9.192;2022-08-21T16:42:05;2.83;;;0.40;;
28459;SDS011;32528;45.712;9.192;2022-08-21T16:44:07;1.48;;;0.30;;
28459;SDS011;32528;45.712;9.192;2022-08-21T16:46:08;0.90;;;0.57;;
28459;SDS011;32528;45.712;9.192;2022-08-21T16:48:11;0.73;;;0.40;;
28459;SDS011;32528;45.712;9.192;2022-08-21T16:50:12;1.67;;;0.45;;
28459;SDS011;32528;45.712;9.192;2022-08-21T16:52:16;1.85;;;0.55;;
28459;SDS011;32528;45.712;9.192;2022-08-21T16:54:18;1.30;;;0.32;;
28459;SDS011;32528;45.712;9.192;2022-08-21T16:56:19;7.47;;;0.55;;
28459;SDS011;32528;45.712;9.192;2022-08-21T16:58:22;1.83;;;0.70;;
28459;SDS011;32528;45.712;9.192;2022-08-21T17:02:30;0.45;;;0.30;;
28459;SDS011;32528;45.712;9.192;2022-08-21T17:04:35;1.85;;;0.43;;
28459;SDS011;32528;45.712;9.192;2022-08-21T17:06:35;0.95;;;0.50;;
28459;SDS011;32528;45.712;9.192;2022-08-21T17:08:36;1.13;;;0.45;;
28459;SDS011;32528;45.712;9.192;2022-08-21T17:10:37;0.35;;;0.30;;
28459;SDS011;32528;45.712;9.192;2022-08-21T17:12:42;2.30;;;0.32;;
28459;SDS011;32528;45.712;9.192;2022-08-21T17:14:48;2.25;;;0.60;;
28459;SDS011;32528;45.712;9.192;2022-08-21T17:16:51;3.13;;;0.63;;
28459;SDS011;32528;45.712;9.192;2022-08-21T17:18:54;3.05;;;0.52;;
28459;SDS011;32528;45.712;9.192;2022-08-21T17:20:55;0.73;;;0.40;;
28459;SDS011;32528;45.712;9.192;2022-08-21T17:22:56;2.00;;;0.40;;
28459;SDS011;32528;45.712;9.192;2022-08-21T17:24:57;1.38;;;0.32;;
28459;SDS011;32528;45.712;9.192;2022-08-21T17:26:58;0.95;;;0.40;;
28459;SDS011;32528;45.712;9.192;2022-08-21T17:31:00;1.33;;;0.60;;
28459;SDS011;32528;45.712;9.192;2022-08-21T17:43:08;2.05;;;0.73;;
28459;SDS011;32528;45.712;9.192;2022-08-21T17:45:14;3.72;;;0.88;;
28459;SDS011;32528;45.712;9.192;2022-08-21T17:49:18;4.40;;;0.95;;
28459;SDS011;32528;45.712;9.192;2022-08-21T17:53:20;1.75;;;0.75;;
28459;SDS011;32528;45.712;9.192;2022-08-21T17:55:21;3.97;;;1.30;;
28459;SDS011;32528;45.712;9.192;2022-08-21T17:57:22;2.30;;;0.60;;
28459;SDS011;32528;45.712;9.192;2022-08-21T17:59:27;1.70;;;0.65;;
28459;SDS011;32528;45.712;9.192;2022-08-21T18:01:28;1.80;;;0.80;;
28459;SDS011;32528;45.712;9.192;2022-08-21T18:03:33;1.88;;;0.90;;
28459;SDS011;32528;45.712;9.192;2022-08-21T18:05:34;9.20;;;0.90;;
28459;SDS011;32528;45.712;9.192;2022-08-21T18:07:35;4.78;;;1.15;;
28459;SDS011;32528;45.712;9.192;2022-08-21T18:09:37;4.82;;;0.70;;
28459;SDS011;32528;45.712;9.192;2022-08-21T18:11:38;3.13;;;0.50;;
28459;SDS011;32528;45.712;9.192;2022-08-21T18:13:40;3.25;;;0.93;;
28459;SDS011;32528;45.712;9.192;2022-08-21T18:15:42;1.17;;;0.70;;
28459;SDS011;32528;45.712;9.192;2022-08-21T18:17:46;2.00;;;0.95;;
28459;SDS011;32528;45.712;9.192;2022-08-21T18:19:49;4.30;;;0.98;;
28459;SDS011;32528;45.712;9.192;2022-08-21T18:21:54;0.85;;;0.57;;
28459;SDS011;32528;45.712;9.192;2022-08-21T18:23:55;2.42;;;0.60;;
28459;SDS011;32528;45.712;9.192;2022-08-21T18:25:56;1.45;;;0.60;;
28459;SDS011;32528;45.712;9.192;2022-08-21T18:27:57;3.42;;;0.90;;
28459;SDS011;32528;45.712;9.192;2022-08-21T18:30:04;10.70;;;1.02;;
28459;SDS011;32528;45.712;9.192;2022-08-21T18:32:06;11.40;;;1.63;;
28459;SDS011;32528;45.712;9.192;2022-08-21T18:34:14;4.57;;;0.90;;
28459;SDS011;32528;45.712;9.192;2022-08-21T18:36:17;1.85;;;0.80;;
28459;SDS011;32528;45.712;9.192;2022-08-21T18:38:17;3.85;;;0.77;;
28459;SDS011;32528;45.712;9.192;2022-08-21T18:40:20;1.58;;;0.80;;
28459;SDS011;32528;45.712;9.192;2022-08-21T18:42:21;1.77;;;0.77;;
28459;SDS011;32528;45.712;9.192;2022-08-21T18:44:23;3.78;;;0.93;;
28459;SDS011;32528;45.712;9.192;2022-08-21T18:46:28;2.65;;;0.80;;
28459;SDS011;32528;45.712;9.192;2022-08-21T18:48:29;6.18;;;1.20;;
28459;SDS011;32528;45.712;9.192;2022-08-21T18:50:30;9.75;;;1.15;;
28459;SDS011;32528;45.712;9.192;2022-08-21T18:52:31;3.47;;;0.60;;
28459;SDS011;32528;45.712;9.192;2022-08-21T18:54:32;6.70;;;1.13;;
28459;SDS011;32528;45.712;9.192;2022-08-21T18:56:33;2.28;;;0.80;;
28459;SDS011;32528;45.712;9.192;2022-08-21T18:58:36;2.13;;;0.80;;
28459;SDS011;32528;45.712;9.192;2022-08-21T19:00:39;2.40;;;0.98;;
28459;SDS011;32528;45.712;9.192;2022-08-21T19:02:46;3.75;;;1.00;;
28459;SDS011;32528;45.712;9.192;2022-08-21T19:04:47;6.22;;;0.70;;
28459;SDS011;32528;45.712;9.192;2022-08-21T19:06:48;1.35;;;0.80;;
28459;SDS011;32528;45.712;9.192;2022-08-21T19:08:49;0.85;;;0.50;;
28459;SDS011;32528;45.712;9.192;2022-08-21T19:10:50;3.22;;;0.68;;
28459;SDS011;32528;45.712;9.192;2022-08-21T19:12:56;1.98;;;0.57;;
28459;SDS011;32528;45.712;9.192;2022-08-21T19:14:58;1.75;;;0.85;;
28459;SDS011;32528;45.712;9.192;2022-08-21T19:16:59;3.92;;;0.90;;
28459;SDS011;32528;45.712;9.192;2022-08-21T19:19:00;6.43;;;1.23;;
28459;SDS011;32528;45.712;9.192;2022-08-21T19:21:02;3.80;;;0.75;;
28459;SDS011;32528;45.712;9.192;2022-08-21T19:23:04;11.00;;;1.30;;
28459;SDS011;32528;45.712;9.192;2022-08-21T19:25:05;2.15;;;1.02;;
28459;SDS011;32528;45.712;9.192;2022-08-21T19:27:07;4.53;;;0.98;;
28459;SDS011;32528;45.712;9.192;2022-08-21T19:29:09;4.03;;;1.23;;
28459;SDS011;32528;45.712;9.192;2022-08-21T19:31:22;2.28;;;1.35;;
28459;SDS011;32528;45.712;9.192;2022-08-21T19:33:30;5.55;;;1.23;;
28459;SDS011;32528;45.712;9.192;2022-08-21T19:35:33;10.55;;;1.63;;
28459;SDS011;32528;45.712;9.192;2022-08-21T19:37:33;3.00;;;1.40;;
28459;SDS011;32528;45.712;9.192;2022-08-21T19:39:34;1.85;;;0.93;;
28459;SDS011;32528;45.712;9.192;2022-08-21T19:41:40;6.90;;;1.05;;
28459;SDS011;32528;45.712;9.192;2022-08-21T19:43:47;1.75;;;0.80;;
28459;SDS011;32528;45.712;9.192;2022-08-21T19:45:54;5.85;;;0.98;;
28459;SDS011;32528;45.712;9.192;2022-08-21T19:47:55;3.35;;;0.70;;
28459;SDS011;32528;45.712;9.192;2022-08-21T19:49:57;2.70;;;0.93;;
28459;SDS011;32528;45.712;9.192;2022-08-21T19:52:00;9.18;;;1.30;;
28459;SDS011;32528;45.712;9.192;2022-08-21T19:54:02;4.90;;;0.95;;
28459;SDS011;32528;45.712;9.192;2022-08-21T19:56:03;8.40;;;1.35;;
28459;SDS011;32528;45.712;9.192;2022-08-21T19:58:03;3.90;;;1.45;;
28459;SDS011;32528;45.712;9.192;2022-08-21T20:00:06;9.50;;;1.42;;
28459;SDS011;32528;45.712;9.192;2022-08-21T20:02:09;1.45;;;0.85;;
28459;SDS011;32528;45.712;9.192;2022-08-21T20:04:16;3.70;;;1.05;;
28459;SDS011;32528;45.712;9.192;2022-08-21T20:06:17;1.63;;;0.82;;
28459;SDS011;32528;45.712;9.192;2022-08-21T20:08:17;3.97;;;1.05;;
28459;SDS011;32528;45.712;9.192;2022-08-21T20:10:18;3.92;;;0.70;;
28459;SDS011;32528;45.712;9.192;2022-08-21T20:12:19;1.85;;;0.93;;
28459;SDS011;32528;45.712;9.192;2022-08-21T20:14:21;2.40;;;0.73;;
28459;SDS011;32528;45.712;9.192;2022-08-21T20:16:27;11.20;;;1.05;;
28459;SDS011;32528;45.712;9.192;2022-08-21T20:18:28;4.93;;;1.33;;
28459;SDS011;32528;45.712;9.192;2022-08-21T20:20:30;4.30;;;1.05;;
28459;SDS011;32528;45.712;9.192;2022-08-21T20:22:31;1.77;;;0.60;;
28459;SDS011;32528;45.712;9.192;2022-08-21T20:24:31;2.85;;;0.95;;
28459;SDS011;32528;45.712;9.192;2022-08-21T20:26:33;2.63;;;1.27;;
28459;SDS011;32528;45.712;9.192;2022-08-21T20:28:34;5.57;;;1.27;;
28459;SDS011;32528;45.712;9.192;2022-08-21T20:30:36;1.38;;;1.00;;
28459;SDS011;32528;45.712;9.192;2022-08-21T20:32:37;6.50;;;1.17;;
28459;SDS011;32528;45.712;9.192;2022-08-21T20:34:38;10.25;;;1.15;;
28459;SDS011;32528;45.712;9.192;2022-08-21T20:36:39;5.07;;;1.20;;
28459;SDS011;32528;45.712;9.192;2022-08-21T20:38:40;9.38;;;1.95;;
28459;SDS011;32528;45.712;9.192;2022-08-21T20:40:41;6.03;;;1.25;;
28459;SDS011;32528;45.712;9.192;2022-08-21T20:42:45;3.30;;;1.08;;
28459;SDS011;32528;45.712;9.192;2022-08-21T20:44:47;2.85;;;1.00;;
28459;SDS011;32528;45.712;9.192;2022-08-21T20:46:48;2.55;;;0.85;;
28459;SDS011;32528;45.712;9.192;2022-08-21T20:48:50;4.32;;;1.23;;
28459;SDS011;32528;45.712;9.192;2022-08-21T20:50:53;1.88;;;1.15;;
28459;SDS011;32528;45.712;9.192;2022-08-21T20:53:03;8.00;;;1.17;;
28459;SDS011;32528;45.712;9.192;2022-08-21T20:55:09;2.42;;;1.23;;
28459;SDS011;32528;45.712;9.192;2022-08-21T20:57:16;4.97;;;1.10;;
28459;SDS011;32528;45.712;9.192;2022-08-21T21:01:33;5.15;;;1.00;;
28459;SDS011;32528;45.712;9.192;2022-08-21T21:03:37;2.10;;;1.15;;
28459;SDS011;32528;45.712;9.192;2022-08-21T21:05:51;2.00;;;0.80;;
28459;SDS011;32528;45.712;9.192;2022-08-21T21:10:16;1.98;;;0.65;;
28459;SDS011;32528;45.712;9.192;2022-08-21T21:12:26;2.05;;;1.00;;
28459;SDS011;32528;45.712;9.192;2022-08-21T21:14:42;1.70;;;0.63;;
28459;SDS011;32528;45.712;9.192;2022-08-21T21:16:51;4.13;;;1.30;;
28459;SDS011;32528;45.712;9.192;2022-08-21T21:21:19;4.07;;;1.85;;
28459;SDS011;32528;45.712;9.192;2022-08-21T21:24:16;7.38;;;1.13;;
28459;SDS011;32528;45.712;9.192;2022-08-21T21:25:55;2.08;;;1.10;;
28459;SDS011;32528;45.712;9.192;2022-08-21T21:28:15;1.55;;;0.75;;
28459;SDS011;32528;45.712;9.192;2022-08-21T21:32:28;3.80;;;1.40;;
28459;SDS011;32528;45.712;9.192;2022-08-21T21:34:30;5.82;;;1.17;;
28459;SDS011;32528;45.712;9.192;2022-08-21T21:41:45;6.03;;;1.00;;
28459;SDS011;32528;45.712;9.192;2022-08-21T21:44:04;2.60;;;0.75;;
28459;SDS011;32528;45.712;9.192;2022-08-21T21:51:16;5.07;;;1.00;;
28459;SDS011;32528;45.712;9.192;2022-08-21T22:00:25;2.42;;;1.20;;
28459;SDS011;32528;45.712;9.192;2022-08-21T22:04:59;2.70;;;1.27;;
28459;SDS011;32528;45.712;9.192;2022-08-21T22:07:14;2.95;;;1.55;;
28459;SDS011;32528;45.712;9.192;2022-08-21T22:10:16;2.85;;;1.10;;
28459;SDS011;32528;45.712;9.192;2022-08-21T22:12:09;4.00;;;1.30;;
28459;SDS011;32528;45.712;9.192;2022-08-21T22:14:18;3.22;;;1.33;;
28459;SDS011;32528;45.712;9.192;2022-08-21T22:18:22;1.42;;;0.80;;
28459;SDS011;32528;45.712;9.192;2022-08-21T22:20:47;2.85;;;1.05;;
28459;SDS011;32528;45.712;9.192;2022-08-21T22:22:54;2.60;;;1.05;;
28459;SDS011;32528;45.712;9.192;2022-08-21T22:24:58;2.78;;;0.95;;
28459;SDS011;32528;45.712;9.192;2022-08-21T22:29:10;2.35;;;0.95;;
28459;SDS011;32528;45.712;9.192;2022-08-21T22:31:20;1.77;;;0.50;;
28459;SDS011;32528;45.712;9.192;2022-08-21T22:33:25;1.73;;;0.95;;
28459;SDS011;32528;45.712;9.192;2022-08-21T22:35:28;2.42;;;0.75;;
28459;SDS011;32528;45.712;9.192;2022-08-21T22:37:32;2.20;;;1.23;;
28459;SDS011;32528;45.712;9.192;2022-08-21T22:39:37;1.42;;;1.10;;
28459;SDS011;32528;45.712;9.192;2022-08-21T22:41:43;2.90;;;1.15;;
28459;SDS011;32528;45.712;9.192;2022-08-21T22:44:05;2.58;;;1.35;;
28459;SDS011;32528;45.712;9.192;2022-08-21T22:46:07;4.38;;;0.80;;
28459;SDS011;32528;45.712;9.192;2022-08-21T22:48:09;3.13;;;1.45;;
28459;SDS011;32528;45.712;9.192;2022-08-21T22:52:21;4.00;;;0.80;;
28459;SDS011;32528;45.712;9.192;2022-08-21T22:54:29;3.35;;;1.33;;
28459;SDS011;32528;45.712;9.192;2022-08-21T22:56:37;3.40;;;1.20;;
28459;SDS011;32528;45.712;9.192;2022-08-21T22:58:52;3.20;;;0.90;;
28459;SDS011;32528;45.712;9.192;2022-08-21T23:03:17;3.15;;;1.10;;
28459;SDS011;32528;45.712;9.192;2022-08-21T23:05:32;2.08;;;1.00;;
28459;SDS011;32528;45.712;9.192;2022-08-21T23:07:38;1.80;;;0.85;;
28459;SDS011;32528;45.712;9.192;2022-08-21T23:09:45;2.53;;;1.08;;
28459;SDS011;32528;45.712;9.192;2022-08-21T23:11:48;8.07;;;1.20;;
28459;SDS011;32528;45.712;9.192;2022-08-21T23:13:49;3.75;;;1.10;;
28459;SDS011;32528;45.712;9.192;2022-08-21T23:15:58;5.45;;;0.88;;
28459;SDS011;32528;45.712;9.192;2022-08-21T23:20:29;1.95;;;1.00;;
28459;SDS011;32528;45.712;9.192;2022-08-21T23:30:07;4.32;;;1.02;;
28459;SDS011;32528;45.712;9.192;2022-08-21T23:48:12;2.25;;;1.02;;
28459;SDS011;32528;45.712;9.192;2022-08-21T23:50:31;7.82;;;1.13;;
